createdAt,value
2018-09-06T00:00:54.302Z,22.24
2018-09-06T00:03:21.303Z,22.24
2018-09-06T00:05:48.349Z,22.24
2018-09-06T00:08:15.315Z,22.25
2018-09-06T00:10:42.388Z,22.24
2018-09-06T00:13:09.368Z,22.24
2018-09-06T00:15:36.350Z,22.24
2018-09-06T00:18:03.315Z,22.24
2018-09-06T00:20:30.304Z,22.24
2018-09-06T00:22:57.321Z,22.24
2018-09-06T00:25:24.254Z,22.24
2018-09-06T00:27:51.278Z,22.24
2018-09-06T00:30:18.242Z,22.24
2018-09-06T00:32:45.247Z,22.24
2018-09-06T00:35:12.234Z,22.24
2018-09-06T00:37:39.657Z,22.24
2018-09-06T00:40:06.587Z,22.23
2018-09-06T00:42:33.513Z,22.25
2018-09-06T00:45:00.449Z,22.25
2018-09-06T00:47:27.414Z,22.25
2018-09-06T00:49:54.402Z,22.24
2018-09-06T00:52:21.418Z,22.25
2018-09-06T00:54:48.661Z,22.24
2018-09-06T00:57:15.656Z,22.24
2018-09-06T00:59:42.625Z,22.25
2018-09-06T01:02:09.666Z,22.24
2018-09-06T01:04:36.700Z,22.24
2018-09-06T01:07:03.708Z,22.24
2018-09-06T01:09:30.697Z,22.24
2018-09-06T01:11:57.645Z,22.24
2018-09-06T01:14:24.574Z,22.25
2018-09-06T01:16:51.513Z,22.25
2018-09-06T01:19:18.475Z,22.24
2018-09-06T01:21:45.417Z,22.24
2018-09-06T01:24:12.368Z,22.24
2018-09-06T01:26:39.330Z,22.24
2018-09-06T01:29:06.290Z,22.24
2018-09-06T01:31:33.214Z,22.24
2018-09-06T01:34:00.116Z,22.24
2018-09-06T01:36:32.477Z,22.24
2018-09-06T01:38:59.412Z,22.24
2018-09-06T01:41:26.418Z,22.25
2018-09-06T01:43:53.348Z,22.25
2018-09-06T01:46:20.314Z,22.24
2018-09-06T01:48:47.294Z,22.23
2018-09-06T01:51:14.244Z,22.24
2018-09-06T01:53:41.333Z,22.25
2018-09-06T01:56:08.298Z,22.24
2018-09-06T01:58:35.241Z,22.24
2018-09-06T02:01:02.157Z,22.24
2018-09-06T02:03:29.168Z,22.23
2018-09-06T02:05:56.185Z,22.25
2018-09-06T02:08:23.102Z,22.25
2018-09-06T02:10:50.037Z,22.25
2018-09-06T02:13:16.953Z,22.25
2018-09-06T02:15:43.917Z,22.25
2018-09-06T02:18:10.845Z,22.24
2018-09-06T02:20:37.736Z,22.24
2018-09-06T02:23:04.745Z,22.24
2018-09-06T02:25:31.762Z,22.23
2018-09-06T02:27:58.736Z,22.24
2018-09-06T02:30:25.679Z,22.23
2018-09-06T02:32:52.650Z,22.24
2018-09-06T02:35:19.617Z,22.24
2018-09-06T02:37:46.569Z,22.25
2018-09-06T02:40:18.815Z,22.24
2018-09-06T02:42:45.735Z,22.23
2018-09-06T02:45:12.698Z,22.24
2018-09-06T02:47:43.843Z,22.24
2018-09-06T02:50:16.129Z,22.24
2018-09-06T02:52:43.049Z,22.25
2018-09-06T02:55:10.087Z,22.25
2018-09-06T02:57:37.066Z,22.24
2018-09-06T03:00:03.971Z,22.27
2018-09-06T03:02:30.895Z,22.25
2018-09-06T03:04:57.830Z,22.25
2018-09-06T03:07:24.759Z,22.25
2018-09-06T03:09:51.681Z,22.25
2018-09-06T03:12:18.621Z,22.26
2018-09-06T03:14:45.533Z,22.25
2018-09-06T03:17:12.429Z,22.25
2018-09-06T03:19:39.326Z,22.24
2018-09-06T03:22:06.216Z,22.25
2018-09-06T03:24:33.110Z,22.24
2018-09-06T03:27:00.014Z,22.27
2018-09-06T03:29:27.022Z,22.27
2018-09-06T03:31:53.927Z,22.27
2018-09-06T03:34:20.817Z,22.27
2018-09-06T03:36:47.709Z,22.26
2018-09-06T03:39:14.607Z,22.26
2018-09-06T03:41:41.501Z,22.26
2018-09-06T03:44:08.385Z,22.27
2018-09-06T03:46:35.336Z,22.27
2018-09-06T03:49:02.362Z,22.28
2018-09-06T03:51:29.304Z,22.28
2018-09-06T03:53:56.234Z,22.29
2018-09-06T03:56:23.175Z,22.31
2018-09-06T03:58:50.175Z,22.33
2018-09-06T04:01:17.145Z,22.32
2018-09-06T04:03:44.150Z,22.31
2018-09-06T04:06:11.166Z,22.31
2018-09-06T04:08:38.168Z,22.34
2018-09-06T04:11:05.103Z,22.34
2018-09-06T04:13:32.061Z,22.32
2018-09-06T04:15:59.024Z,22.32
2018-09-06T04:18:25.990Z,22.31
2018-09-06T04:20:52.969Z,22.30
2018-09-06T04:23:19.997Z,22.30
2018-09-06T04:25:47.046Z,22.29
2018-09-06T04:28:14.403Z,22.30
2018-09-06T04:30:41.419Z,22.29
2018-09-06T04:33:08.440Z,22.29
2018-09-06T04:35:35.451Z,22.29
2018-09-06T04:38:02.398Z,22.29
2018-09-06T04:40:29.395Z,22.29
2018-09-06T04:42:56.337Z,22.30
2018-09-06T04:45:23.310Z,22.28
2018-09-06T04:47:50.283Z,22.28
2018-09-06T04:50:17.290Z,22.29
2018-09-06T04:52:44.249Z,22.29
2018-09-06T04:55:11.395Z,22.29
2018-09-06T04:57:38.388Z,22.29
2018-09-06T05:00:05.372Z,22.29
2018-09-06T05:02:32.352Z,22.28
2018-09-06T05:04:59.318Z,22.28
2018-09-06T05:07:26.259Z,22.28
2018-09-06T05:09:53.219Z,22.28
2018-09-06T05:12:20.202Z,22.29
2018-09-06T05:14:47.203Z,22.28
2018-09-06T05:17:14.182Z,22.27
2018-09-06T05:19:41.205Z,22.28
2018-09-06T05:22:08.232Z,22.28
2018-09-06T05:24:35.221Z,22.28
2018-09-06T05:27:02.236Z,22.27
2018-09-06T05:29:29.410Z,22.27
2018-09-06T05:31:56.382Z,22.27
2018-09-06T05:34:23.357Z,22.27
2018-09-06T05:36:50.564Z,22.28
2018-09-06T05:39:17.526Z,22.27
2018-09-06T05:41:44.437Z,22.28
2018-09-06T05:44:11.913Z,22.27
2018-09-06T05:46:39.381Z,22.27
2018-09-06T05:49:06.314Z,22.27
2018-09-06T05:51:33.322Z,22.27
2018-09-06T05:54:00.287Z,22.27
2018-09-06T05:56:27.209Z,22.27
2018-09-06T05:58:54.181Z,22.27
2018-09-06T06:01:21.145Z,22.26
2018-09-06T06:03:48.105Z,22.27
2018-09-06T06:06:15.041Z,22.27
2018-09-06T06:08:43.451Z,22.27
2018-09-06T06:11:10.427Z,22.27
2018-09-06T06:13:37.362Z,22.27
2018-09-06T06:16:04.445Z,22.26
2018-09-06T06:18:31.264Z,22.26
2018-09-06T06:20:58.224Z,22.26
2018-09-06T06:23:25.209Z,22.27
2018-09-06T06:25:52.159Z,22.27
2018-09-06T06:28:19.140Z,22.26
2018-09-06T06:30:46.047Z,22.26
2018-09-06T06:33:12.996Z,22.27
2018-09-06T06:35:39.980Z,22.27
2018-09-06T06:38:06.978Z,22.26
2018-09-06T06:40:33.932Z,22.27
2018-09-06T06:43:00.854Z,22.27
2018-09-06T06:45:27.825Z,22.27
2018-09-06T06:47:54.736Z,22.26
2018-09-06T06:50:21.790Z,22.26
2018-09-06T06:52:48.721Z,22.27
2018-09-06T06:55:15.917Z,22.27
2018-09-06T06:57:42.878Z,22.26
2018-09-06T07:00:09.839Z,22.26
2018-09-06T07:02:36.870Z,22.26
2018-09-06T07:05:03.846Z,22.26
2018-09-06T07:07:30.833Z,22.27
2018-09-06T07:09:57.979Z,22.27
2018-09-06T07:12:25.023Z,22.26
2018-09-06T07:14:52.018Z,22.27
2018-09-06T07:17:18.956Z,22.26
2018-09-06T07:19:45.910Z,22.26
2018-09-06T07:22:12.877Z,22.27
2018-09-06T07:24:39.822Z,22.26
2018-09-06T07:27:06.879Z,22.26
2018-09-06T07:29:33.881Z,22.26
2018-09-06T07:32:00.986Z,22.26
2018-09-06T07:34:27.900Z,22.26
2018-09-06T07:36:54.886Z,22.26
2018-09-06T07:39:21.905Z,22.26
2018-09-06T07:41:48.837Z,22.26
2018-09-06T07:44:15.757Z,22.26
2018-09-06T07:46:42.773Z,22.26
2018-09-06T07:49:09.734Z,22.26
2018-09-06T07:51:36.766Z,22.27
2018-09-06T07:54:03.787Z,22.26
2018-09-06T07:56:30.718Z,22.26
2018-09-06T07:58:57.764Z,22.26
2018-09-06T08:01:24.707Z,22.26
2018-09-06T08:03:51.766Z,22.26
2018-09-06T08:06:18.715Z,22.27
2018-09-06T08:08:45.671Z,22.25
2018-09-06T08:11:12.560Z,21.83
2018-09-06T08:13:39.547Z,21.60
2018-09-06T08:16:06.449Z,21.72
2018-09-06T08:18:33.358Z,21.79
2018-09-06T08:21:00.627Z,21.67
2018-09-06T08:23:27.617Z,21.65
2018-09-06T08:25:54.512Z,21.70
2018-09-06T08:28:21.469Z,21.66
2018-09-06T08:30:48.443Z,21.78
2018-09-06T08:33:15.349Z,21.83
2018-09-06T08:35:42.246Z,21.74
2018-09-06T08:38:09.177Z,21.43
2018-09-06T08:40:36.070Z,21.45
2018-09-06T08:43:02.974Z,21.68
2018-09-06T08:45:29.962Z,21.70
2018-09-06T08:47:56.827Z,21.77
2018-09-06T08:50:23.747Z,21.81
2018-09-06T08:52:50.643Z,21.83
2018-09-06T08:55:17.519Z,21.77
2018-09-06T08:57:44.422Z,21.87
2018-09-06T09:00:11.338Z,21.84
2018-09-06T09:02:38.305Z,21.86
2018-09-06T09:05:05.157Z,21.71
2018-09-06T09:07:32.112Z,21.83
2018-09-06T09:09:58.962Z,21.79
2018-09-06T09:12:26.037Z,21.89
2018-09-06T09:14:52.822Z,21.82
2018-09-06T09:17:19.725Z,21.80
2018-09-06T09:19:46.617Z,21.85
2018-09-06T09:22:13.688Z,21.84
2018-09-06T09:24:40.433Z,21.87
2018-09-06T09:27:07.375Z,21.89
2018-09-06T09:29:34.269Z,21.91
2018-09-06T09:32:01.369Z,21.93
2018-09-06T09:34:28.297Z,21.94
2018-09-06T09:36:55.195Z,21.95
2018-09-06T09:39:22.116Z,21.96
2018-09-06T09:41:49.013Z,21.96
2018-09-06T09:44:16.013Z,21.97
2018-09-06T09:49:09.000Z,21.99
2018-09-06T09:51:35.903Z,22.00
2018-09-06T09:54:02.800Z,22.00
2018-09-06T09:56:29.726Z,21.99
2018-09-06T09:58:56.635Z,22.01
2018-09-06T10:01:27.758Z,22.00
2018-09-06T10:03:59.973Z,22.01
2018-09-06T10:06:32.250Z,22.02
2018-09-06T10:09:04.525Z,22.02
2018-09-06T10:11:31.434Z,22.03
2018-09-06T10:13:58.333Z,22.03
2018-09-06T10:16:25.273Z,22.03
2018-09-06T10:18:52.218Z,22.04
2018-09-06T10:21:19.110Z,22.04
2018-09-06T10:23:46.020Z,22.03
2018-09-06T10:26:12.920Z,22.03
2018-09-06T10:28:39.804Z,22.05
2018-09-06T10:31:06.719Z,22.04
2018-09-06T10:33:33.613Z,22.04
2018-09-06T10:36:00.516Z,22.05
2018-09-06T10:38:27.416Z,22.05
2018-09-06T10:40:54.320Z,22.05
2018-09-06T10:43:21.233Z,22.05
2018-09-06T10:45:48.109Z,22.05
2018-09-06T10:48:14.999Z,22.05
2018-09-06T10:50:41.908Z,22.06
2018-09-06T10:53:08.809Z,22.06
2018-09-06T10:55:35.702Z,22.06
2018-09-06T10:58:02.597Z,22.06
2018-09-06T11:00:29.880Z,22.06
2018-09-06T11:02:56.861Z,22.06
2018-09-06T11:05:23.749Z,22.06
2018-09-06T11:07:50.722Z,22.06
2018-09-06T11:10:17.658Z,22.07
2018-09-06T11:12:44.549Z,22.07
2018-09-06T11:15:11.499Z,22.06
2018-09-06T11:17:38.369Z,22.06
2018-09-06T11:20:05.267Z,22.08
2018-09-06T11:22:32.349Z,22.08
2018-09-06T11:24:59.112Z,22.08
2018-09-06T11:27:26.008Z,22.07
2018-09-06T11:29:52.918Z,22.07
2018-09-06T11:32:19.822Z,22.07
2018-09-06T11:34:46.722Z,22.07
2018-09-06T11:37:13.618Z,22.07
2018-09-06T11:39:40.510Z,22.07
2018-09-06T11:42:07.462Z,22.08
2018-09-06T11:44:34.349Z,22.09
2018-09-06T11:47:01.316Z,22.08
2018-09-06T11:49:28.199Z,22.08
2018-09-06T11:51:55.147Z,22.10
2018-09-06T11:54:22.032Z,22.08
2018-09-06T11:56:48.983Z,22.08
2018-09-06T11:59:15.897Z,22.09
2018-09-06T12:01:42.831Z,22.08
2018-09-06T12:04:10.025Z,22.08
2018-09-06T12:06:36.985Z,22.10
2018-09-06T12:09:05.125Z,22.09
2018-09-06T12:11:32.030Z,22.10
2018-09-06T12:13:58.921Z,22.10
2018-09-06T12:16:25.800Z,22.10
2018-09-06T12:18:52.694Z,22.09
2018-09-06T12:21:19.597Z,22.11
2018-09-06T12:23:46.484Z,22.11
2018-09-06T12:26:13.373Z,22.11
2018-09-06T12:28:40.277Z,22.10
2018-09-06T12:31:07.156Z,22.11
2018-09-06T12:33:34.207Z,22.12
2018-09-06T12:36:01.081Z,22.11
2018-09-06T12:38:27.973Z,22.12
2018-09-06T12:40:54.893Z,22.12
2018-09-06T12:43:21.790Z,22.12
2018-09-06T12:45:48.708Z,22.11
2018-09-06T12:48:15.610Z,22.13
2018-09-06T12:50:42.535Z,22.12
2018-09-06T12:53:09.431Z,22.13
2018-09-06T12:55:36.343Z,22.12
2018-09-06T12:58:03.240Z,22.12
2018-09-06T13:00:30.166Z,22.12
2018-09-06T13:02:57.058Z,22.12
2018-09-06T13:05:23.945Z,22.12
2018-09-06T13:07:50.841Z,22.13
2018-09-06T13:10:17.745Z,22.13
2018-09-06T13:12:44.714Z,22.13
2018-09-06T13:15:11.605Z,22.13
2018-09-06T13:17:38.505Z,22.13
2018-09-06T13:20:05.414Z,22.13
2018-09-06T13:22:32.300Z,22.14
2018-09-06T13:24:59.298Z,22.14
2018-09-06T13:27:26.193Z,22.14
2018-09-06T13:29:53.097Z,22.15
2018-09-06T13:32:20.017Z,22.17
2018-09-06T13:34:46.960Z,22.18
2018-09-06T13:37:13.867Z,22.20
2018-09-06T13:39:40.763Z,22.17
2018-09-06T13:42:07.656Z,22.17
2018-09-06T13:44:34.557Z,22.16
2018-09-06T13:47:01.495Z,22.18
2018-09-06T13:49:28.398Z,22.18
2018-09-06T13:51:55.608Z,22.17
2018-09-06T13:54:22.539Z,22.16
2018-09-06T13:56:49.560Z,22.16
2018-09-06T13:59:16.750Z,22.17
2018-09-06T14:01:43.705Z,22.14
2018-09-06T14:04:10.881Z,22.15
2018-09-06T14:06:37.858Z,22.15
2018-09-06T14:09:05.331Z,22.16
2018-09-06T14:11:32.236Z,22.16
2018-09-06T14:13:59.121Z,22.16
2018-09-06T14:16:26.098Z,22.16
2018-09-06T14:18:53.076Z,22.16
2018-09-06T14:21:20.153Z,22.16
2018-09-06T14:23:47.180Z,22.16
2018-09-06T14:26:14.138Z,22.17
2018-09-06T14:28:41.038Z,22.16
2018-09-06T14:31:07.916Z,22.17
2018-09-06T14:33:34.997Z,22.16
2018-09-06T14:36:01.964Z,22.17
2018-09-06T14:38:28.879Z,22.17
2018-09-06T14:40:55.769Z,22.16
2018-09-06T14:43:22.656Z,22.17
2018-09-06T14:45:49.562Z,22.16
2018-09-06T14:48:16.449Z,22.17
2018-09-06T14:50:43.367Z,22.16
2018-09-06T14:53:10.276Z,22.16
2018-09-06T14:55:37.245Z,22.18
2018-09-06T14:58:04.145Z,22.16
2018-09-06T15:00:31.044Z,22.17
2018-09-06T15:02:57.932Z,22.17
2018-09-06T15:05:24.845Z,22.20
2018-09-06T15:07:51.861Z,22.21
2018-09-06T15:10:18.843Z,22.22
2018-09-06T15:12:45.843Z,22.21
2018-09-06T15:15:12.898Z,22.22
2018-09-06T15:17:39.847Z,22.23
2018-09-06T15:20:07.050Z,22.22
2018-09-06T15:22:33.969Z,22.23
2018-09-06T15:25:00.975Z,22.24
2018-09-06T15:27:28.063Z,22.26
2018-09-06T15:29:55.074Z,22.26
2018-09-06T15:32:22.044Z,22.25
2018-09-06T15:34:49.106Z,22.25
2018-09-06T15:37:16.128Z,22.25
2018-09-06T15:39:43.106Z,22.25
2018-09-06T15:42:10.120Z,22.27
2018-09-06T15:44:37.061Z,22.26
2018-09-06T15:47:04.084Z,22.26
2018-09-06T15:49:31.233Z,22.25
2018-09-06T15:51:58.267Z,22.25
2018-09-06T15:54:25.313Z,22.26
2018-09-06T15:56:52.296Z,22.26
2018-09-06T15:59:19.235Z,22.28
2018-09-06T16:01:46.188Z,22.27
2018-09-06T16:04:13.118Z,22.26
2018-09-06T16:06:40.072Z,22.27
2018-09-06T16:09:07.036Z,22.27
2018-09-06T16:11:34.039Z,22.27
2018-09-06T16:14:01.102Z,22.28
2018-09-06T16:16:28.176Z,22.27
2018-09-06T16:18:55.135Z,22.28
2018-09-06T16:21:22.068Z,22.29
2018-09-06T16:23:49.033Z,22.28
2018-09-06T16:26:15.986Z,22.30
2018-09-06T16:28:43.009Z,22.32
2018-09-06T16:31:09.958Z,22.35
2018-09-06T16:33:37.009Z,22.33
2018-09-06T16:36:03.985Z,22.32
2018-09-06T16:38:30.910Z,22.31
2018-09-06T16:40:57.892Z,22.30
2018-09-06T16:43:24.845Z,22.31
2018-09-06T16:45:51.799Z,22.29
2018-09-06T16:48:18.746Z,22.29
2018-09-06T16:50:45.699Z,22.30
2018-09-06T16:53:12.666Z,22.30
2018-09-06T16:55:39.693Z,22.29
2018-09-06T16:58:06.629Z,22.29
2018-09-06T17:00:33.524Z,22.28
2018-09-06T17:03:00.438Z,22.29
2018-09-06T17:05:27.369Z,22.28
2018-09-06T17:07:54.305Z,22.29
2018-09-06T17:10:21.220Z,22.28
2018-09-06T17:12:48.178Z,22.28
2018-09-06T17:15:15.057Z,22.29
2018-09-06T17:17:42.222Z,22.29
2018-09-06T17:20:09.319Z,22.28
2018-09-06T17:22:36.208Z,22.29
2018-09-06T17:25:03.096Z,22.29
2018-09-06T17:27:30.120Z,22.28
2018-09-06T17:29:57.129Z,22.28
2018-09-06T17:32:24.047Z,22.28
2018-09-06T17:34:50.961Z,22.29
2018-09-06T17:37:17.857Z,22.29
2018-09-06T17:39:44.759Z,22.29
2018-09-06T17:42:11.649Z,22.28
2018-09-06T17:44:38.561Z,22.29
2018-09-06T17:47:05.461Z,22.29
2018-09-06T17:49:32.393Z,22.29
2018-09-06T17:51:59.303Z,22.29
2018-09-06T17:54:26.346Z,22.29
2018-09-06T17:56:53.193Z,22.29
2018-09-06T17:59:20.078Z,22.29
2018-09-06T18:01:46.971Z,22.28
2018-09-06T18:04:13.883Z,22.28
2018-09-06T18:06:40.802Z,22.30
2018-09-06T18:09:07.697Z,22.29
2018-09-06T18:11:34.601Z,22.29
2018-09-06T18:14:01.489Z,22.29
2018-09-06T18:16:28.459Z,22.30
2018-09-06T18:18:55.585Z,22.30
2018-09-06T18:21:22.586Z,22.29
2018-09-06T18:23:49.474Z,22.28
2018-09-06T18:26:16.452Z,22.28
2018-09-06T18:28:43.375Z,22.26
2018-09-06T18:31:10.285Z,22.26
2018-09-06T18:33:37.218Z,22.27
2018-09-06T18:36:04.146Z,22.27
2018-09-06T18:38:31.042Z,22.27
2018-09-06T18:40:57.928Z,22.27
2018-09-06T18:43:24.834Z,22.27
2018-09-06T18:45:51.732Z,22.26
2018-09-06T18:48:18.681Z,22.27
2018-09-06T18:50:45.608Z,22.28
2018-09-06T18:53:12.614Z,22.27
2018-09-06T18:55:39.661Z,22.27
2018-09-06T18:58:06.548Z,22.25
2018-09-06T19:00:33.425Z,22.27
2018-09-06T19:03:00.318Z,22.26
2018-09-06T19:05:27.214Z,22.29
2018-09-06T19:07:54.127Z,22.29
2018-09-06T19:10:21.082Z,22.33
2018-09-06T19:12:48.078Z,22.33
2018-09-06T19:15:15.062Z,22.33
2018-09-06T19:17:42.103Z,22.31
2018-09-06T19:20:09.101Z,22.30
2018-09-06T19:22:36.134Z,22.31
2018-09-06T19:25:03.162Z,22.32
2018-09-06T19:27:30.093Z,22.34
2018-09-06T19:29:57.072Z,22.34
2018-09-06T19:32:24.061Z,22.34
2018-09-06T19:34:51.046Z,22.34
2018-09-06T19:37:17.978Z,22.34
2018-09-06T19:39:44.966Z,22.33
2018-09-06T19:42:11.931Z,22.33
2018-09-06T19:44:38.964Z,22.33
2018-09-06T19:47:05.943Z,22.33
2018-09-06T19:49:33.088Z,22.34
2018-09-06T19:52:00.123Z,22.33
2018-09-06T19:54:27.096Z,22.34
2018-09-06T19:56:54.565Z,22.34
2018-09-06T19:59:21.516Z,22.33
2018-09-06T20:01:48.532Z,22.34
2018-09-06T20:04:15.502Z,22.34
2018-09-06T20:06:42.472Z,22.34
2018-09-06T20:09:09.383Z,22.34
2018-09-06T20:11:36.390Z,22.34
2018-09-06T20:14:03.325Z,22.34
2018-09-06T20:16:30.232Z,22.34
2018-09-06T20:18:57.169Z,22.33
2018-09-06T20:21:24.102Z,22.34
2018-09-06T20:23:51.015Z,22.34
2018-09-06T20:26:17.982Z,22.34
2018-09-06T20:28:44.885Z,22.33
2018-09-06T20:31:11.814Z,22.35
2018-09-06T20:33:38.772Z,22.35
2018-09-06T20:36:05.706Z,22.33
2018-09-06T20:38:32.652Z,22.34
2018-09-06T20:40:59.597Z,22.34
2018-09-06T20:43:26.620Z,22.34
2018-09-06T20:45:53.597Z,22.35
2018-09-06T20:48:20.560Z,22.35
2018-09-06T20:50:47.545Z,22.33
2018-09-06T20:53:14.624Z,22.34
2018-09-06T20:55:41.484Z,22.33
2018-09-06T20:58:08.428Z,22.35
2018-09-06T21:00:35.416Z,22.34
2018-09-06T21:03:02.362Z,22.35
2018-09-06T21:05:29.328Z,22.34
2018-09-06T21:07:56.289Z,22.34
2018-09-06T21:10:23.228Z,22.34
2018-09-06T21:12:50.261Z,22.34
2018-09-06T21:15:17.229Z,22.35
2018-09-06T21:17:44.199Z,22.35
2018-09-06T21:20:11.149Z,22.35
2018-09-06T21:22:38.131Z,22.35
2018-09-06T21:25:05.139Z,22.34
2018-09-06T21:27:32.119Z,22.35
2018-09-06T21:29:59.190Z,22.34
2018-09-06T21:32:26.105Z,22.34
2018-09-06T21:34:53.141Z,22.35
2018-09-06T21:37:20.057Z,22.34
2018-09-06T21:39:47.049Z,22.35
2018-09-06T21:42:13.960Z,22.35
2018-09-06T21:44:40.874Z,22.35
2018-09-06T21:47:07.898Z,22.34
2018-09-06T21:49:34.885Z,22.35
2018-09-06T21:52:01.870Z,22.35
2018-09-06T21:54:28.797Z,22.36
2018-09-06T21:56:55.761Z,22.34
2018-09-06T21:59:22.700Z,22.34
2018-09-06T22:01:51.239Z,22.36
2018-09-06T22:04:18.217Z,22.34
2018-09-06T22:06:45.281Z,22.33
2018-09-06T22:09:13.074Z,22.34
2018-09-06T22:11:40.106Z,22.35
2018-09-06T22:14:07.028Z,22.35
2018-09-06T22:16:33.970Z,22.35
2018-09-06T22:19:00.946Z,22.34
2018-09-06T22:21:27.896Z,22.34
2018-09-06T22:23:54.886Z,22.35
2018-09-06T22:26:21.854Z,22.35
2018-09-06T22:28:48.865Z,22.35
2018-09-06T22:31:15.788Z,22.35
2018-09-06T22:33:42.742Z,22.35
2018-09-06T22:36:09.689Z,22.35
2018-09-06T22:38:36.629Z,22.34
2018-09-06T22:41:03.974Z,22.34
2018-09-06T22:43:30.993Z,22.35
2018-09-06T22:45:58.106Z,22.34
2018-09-06T22:48:25.122Z,22.34
2018-09-06T22:50:52.058Z,22.35
2018-09-06T22:53:19.050Z,22.34
2018-09-06T22:55:45.957Z,22.35
2018-09-06T22:58:12.854Z,22.34
2018-09-06T23:00:39.801Z,22.35
2018-09-06T23:03:12.084Z,22.35
2018-09-06T23:05:39.045Z,22.35
2018-09-06T23:08:05.978Z,22.35
2018-09-06T23:10:32.902Z,22.35
2018-09-06T23:12:59.859Z,22.35
2018-09-06T23:15:26.848Z,22.35
2018-09-06T23:17:53.794Z,22.34
2018-09-06T23:20:20.738Z,22.34
2018-09-06T23:22:47.702Z,22.35
2018-09-06T23:25:14.654Z,22.36
2018-09-06T23:27:41.583Z,22.35
2018-09-06T23:30:08.535Z,22.35
2018-09-06T23:32:35.480Z,22.36
2018-09-06T23:35:02.500Z,22.36
2018-09-06T23:37:29.430Z,22.35
2018-09-06T23:39:56.382Z,22.36
2018-09-06T23:42:25.189Z,22.35
2018-09-06T23:44:52.134Z,22.35
2018-09-06T23:47:19.044Z,22.35
2018-09-06T23:49:46.021Z,22.35
2018-09-06T23:52:12.930Z,22.35
2018-09-06T23:54:39.860Z,22.35
2018-09-06T23:57:06.802Z,22.36
2018-09-06T23:59:33.761Z,22.36
